Time;durP1;ratioP1;P1;durP2;ratioP2;P2;SDS_P1;SDS_P2;PMS_P1;PMS_P2;Temp;Humidity;BMP_temperature;BMP_pressure;BME280_temperature;BME280_humidity;BME280_pressure;Samples;Min_cycle;Max_cycle;Signal;HPM_P1;HPM_P2
2023/10/07 00:00:24;;;;;;;14.30;5.70;;;15.90;76.20;;;;;;5084150;28;20358;-69
2023/10/07 00:02:50;;;;;;;8.15;4.53;;;15.90;76.00;;;;;;5075136;28;20485;-69
2023/10/07 00:05:16;;;;;;;13.30;4.97;;;15.90;76.00;;;;;;5080641;28;20111;-69
2023/10/07 00:07:45;;;;;;;11.60;5.30;;;15.90;75.90;;;;;;5073459;28;20024;-70
2023/10/07 00:10:15;;;;;;;19.83;6.10;;;15.90;75.90;;;;;;5073051;28;20094;-70
2023/10/07 00:12:42;;;;;;;11.63;5.20;;;15.90;75.90;;;;;;5073339;28;20077;-69
2023/10/07 00:15:11;;;;;;;14.68;5.18;;;15.90;76.00;;;;;;5072576;28;20024;-70
2023/10/07 00:17:42;;;;;;;11.60;5.72;;;15.90;76.10;;;;;;5073368;28;20035;-69
2023/10/07 00:20:12;;;;;;;11.75;4.93;;;15.90;76.20;;;;;;5073168;28;20024;-69
2023/10/07 00:22:47;;;;;;;15.15;6.03;;;15.90;76.40;;;;;;5073252;28;20448;-68
2023/10/07 00:25:16;;;;;;;12.82;4.95;;;15.90;76.40;;;;;;5072744;28;20033;-69
2023/10/07 00:27:42;;;;;;;13.20;5.25;;;15.80;76.60;;;;;;5073000;28;20028;-69
2023/10/07 00:30:15;;;;;;;10.50;4.82;;;15.90;76.60;;;;;;5072984;28;20032;-69
2023/10/07 00:32:41;;;;;;;11.55;5.43;;;15.80;76.80;;;;;;5073129;28;20028;-69
2023/10/07 00:35:07;;;;;;;10.30;5.15;;;15.80;76.80;;;;;;5072771;28;20445;-70
2023/10/07 00:37:37;;;;;;;11.20;5.53;;;15.80;76.80;;;;;;5080090;28;20031;-69
2023/10/07 00:40:14;;;;;;;12.83;5.30;;;15.90;77.00;;;;;;5092949;28;20016;-67
2023/10/07 00:42:45;;;;;;;13.45;5.35;;;15.90;77.10;;;;;;5092487;28;20028;-68
2023/10/07 00:45:20;;;;;;;10.93;5.60;;;15.90;76.90;;;;;;5092808;28;20062;-70
2023/10/07 00:47:49;;;;;;;11.65;5.60;;;15.90;77.10;;;;;;5088184;28;20024;-69
2023/10/07 00:50:16;;;;;;;14.38;5.40;;;15.90;77.10;;;;;;5089315;28;20107;-68
2023/10/07 00:55:24;;;;;;;12.15;5.07;;;15.90;77.20;;;;;;5092693;28;20027;-68
2023/10/07 00:58:03;;;;;;;13.13;5.20;;;15.90;77.50;;;;;;5092835;28;20139;-70
2023/10/07 01:03:13;;;;;;;10.50;5.72;;;15.90;77.30;;;;;;5092813;28;20076;-69
2023/10/07 01:05:44;;;;;;;10.70;5.32;;;15.90;77.40;;;;;;5093085;28;20420;-69
2023/10/07 01:08:12;;;;;;;15.70;6.25;;;15.90;77.40;;;;;;5093890;28;20036;-68
2023/10/07 01:10:40;;;;;;;10.57;5.25;;;15.90;77.30;;;;;;5094213;28;20039;-68
2023/10/07 01:13:24;;;;;;;14.90;6.13;;;15.90;77.50;;;;;;5093782;28;20024;-70
2023/10/07 01:15:50;;;;;;;13.63;5.60;;;15.90;77.70;;;;;;5094541;28;20092;-69
2023/10/07 01:18:19;;;;;;;14.13;5.55;;;15.90;77.90;;;;;;5093498;28;20040;-68
2023/10/07 01:23:18;;;;;;;11.75;5.70;;;15.90;78.30;;;;;;5092990;28;20077;-69
2023/10/07 01:25:44;;;;;;;17.30;6.15;;;15.90;78.70;;;;;;5092817;28;20032;-69
2023/10/07 01:28:14;;;;;;;16.17;5.30;;;15.90;78.90;;;;;;5092141;28;20137;-69
2023/10/07 01:30:47;;;;;;;12.18;5.15;;;15.90;79.10;;;;;;5092720;28;20025;-69
2023/10/07 01:36:05;;;;;;;15.55;5.63;;;15.90;79.80;;;;;;5092355;28;20101;-69
2023/10/07 01:38:28;;;;;;;12.38;5.53;;;15.80;80.00;;;;;;5091788;28;20127;-69
2023/10/07 01:41:04;;;;;;;10.63;5.38;;;15.80;80.30;;;;;;5092613;28;20028;-69
2023/10/07 01:43:30;;;;;;;10.10;5.15;;;15.80;80.50;;;;;;5092056;28;20103;-69
2023/10/07 01:45:56;;;;;;;8.73;5.18;;;15.80;80.90;;;;;;5092130;28;20449;-69
2023/10/07 01:48:21;;;;;;;12.88;5.88;;;15.80;81.00;;;;;;5092002;28;20395;-68
2023/10/07 01:50:49;;;;;;;13.80;5.38;;;15.80;81.20;;;;;;5092109;28;20081;-69
2023/10/07 01:53:15;;;;;;;20.35;5.97;;;15.80;81.20;;;;;;5092107;28;20076;-69
2023/10/07 01:55:43;;;;;;;14.70;6.53;;;15.80;81.20;;;;;;5096319;28;20020;-69
2023/10/07 01:58:16;;;;;;;13.55;5.97;;;15.80;81.40;;;;;;5095896;28;20127;-69
2023/10/07 02:00:51;;;;;;;14.07;6.85;;;15.80;81.70;;;;;;5096461;28;20451;-67
2023/10/07 02:03:23;;;;;;;13.07;6.32;;;15.80;81.70;;;;;;5095605;28;20385;-70
2023/10/07 02:05:50;;;;;;;14.52;6.00;;;15.80;82.00;;;;;;5096237;28;20032;-68
2023/10/07 02:08:21;;;;;;;14.75;6.07;;;15.80;82.30;;;;;;5095750;28;20038;-69
2023/10/07 02:10:47;;;;;;;;;;;15.80;82.50;;;;;;5096604;28;20028;-69
2023/10/07 02:13:16;;;;;;;14.35;6.75;;;15.80;82.70;;;;;;5095729;28;19995;-70
2023/10/07 02:15:42;;;;;;;15.32;6.72;;;15.80;82.60;;;;;;5096103;28;20138;-68
2023/10/07 02:18:15;;;;;;;11.60;6.00;;;15.80;82.90;;;;;;5095964;28;20037;-68
2023/10/07 02:20:49;;;;;;;17.10;7.32;;;15.80;83.20;;;;;;5096268;28;20115;-68
2023/10/07 02:23:37;;;;;;;16.63;6.97;;;15.80;83.70;;;;;;5095560;28;20050;-68
2023/10/07 02:26:06;;;;;;;15.80;6.00;;;15.80;84.00;;;;;;5095890;28;20036;-69
2023/10/07 02:28:35;;;;;;;11.88;6.50;;;15.90;84.50;;;;;;5095195;28;20040;-70
2023/10/07 02:31:07;;;;;;;12.45;6.78;;;15.90;84.80;;;;;;5095609;28;20106;-69
2023/10/07 02:33:41;;;;;;;13.93;6.78;;;15.90;85.00;;;;;;5095269;28;20020;-69
2023/10/07 02:36:12;;;;;;;15.43;7.10;;;15.90;85.10;;;;;;5095449;28;20407;-69
2023/10/07 02:38:41;;;;;;;15.60;6.70;;;16.00;85.30;;;;;;5095616;28;20456;-69
2023/10/07 02:41:20;;;;;;;15.75;6.95;;;16.00;85.40;;;;;;5090347;28;20028;-68
2023/10/07 02:43:49;;;;;;;13.15;6.22;;;16.00;85.40;;;;;;5075571;28;20420;-69
2023/10/07 02:46:31;;;;;;;15.32;6.80;;;16.00;85.40;;;;;;5093087;28;20030;-69
2023/10/07 02:49:01;;;;;;;17.08;6.82;;;16.00;85.50;;;;;;5094948;28;20442;-68
2023/10/07 02:51:27;;;;;;;13.63;6.15;;;16.10;85.70;;;;;;5095035;28;20031;-69
2023/10/07 02:54:00;;;;;;;18.63;6.57;;;16.10;85.80;;;;;;5095194;28;20024;-69
2023/10/07 02:56:29;;;;;;;12.70;7.03;;;16.10;85.80;;;;;;5091505;28;20416;-69
2023/10/07 02:59:00;;;;;;;12.20;6.00;;;16.10;85.80;;;;;;5094743;28;20484;-69
2023/10/07 03:01:26;;;;;;;12.63;5.50;;;16.10;85.90;;;;;;5094741;28;20097;-69
2023/10/07 03:03:54;;;;;;;11.52;5.72;;;16.10;86.00;;;;;;5094975;28;20028;-69
2023/10/07 03:06:20;;;;;;;13.13;6.47;;;16.10;86.00;;;;;;5093966;28;20024;-69
2023/10/07 03:11:20;;;;;;;12.48;5.75;;;16.20;86.10;;;;;;5094882;28;20048;-69
2023/10/07 03:13:46;;;;;;;11.38;5.32;;;16.20;86.10;;;;;;5094895;28;20028;-68
2023/10/07 03:24:11;;;;;;;8.40;4.80;;;16.20;85.90;;;;;;5095278;28;20035;-68
2023/10/07 03:26:39;;;;;;;14.27;6.35;;;16.30;86.00;;;;;;5095756;28;20020;-69
2023/10/07 03:29:05;;;;;;;11.48;5.50;;;16.30;85.90;;;;;;5095355;28;20093;-69
2023/10/07 03:34:12;;;;;;;15.25;5.43;;;16.30;85.90;;;;;;5093874;28;20413;-69
2023/10/07 03:36:41;;;;;;;9.82;5.38;;;16.30;85.80;;;;;;5094048;28;20028;-69
2023/10/07 03:41:41;;;;;;;11.00;5.25;;;16.30;85.50;;;;;;5094021;28;20032;-69
2023/10/07 03:44:07;;;;;;;9.10;5.20;;;16.30;85.60;;;;;;5094316;28;20032;-68
2023/10/07 03:46:34;;;;;;;8.80;4.60;;;16.30;85.60;;;;;;5093902;28;20161;-68
2023/10/07 03:49:01;;;;;;;11.10;4.90;;;16.40;85.40;;;;;;5093434;28;20042;-69
2023/10/07 03:51:30;;;;;;;12.07;4.93;;;16.40;85.10;;;;;;5094795;28;20028;-70
2023/10/07 03:54:09;;;;;;;11.02;5.00;;;16.40;84.80;;;;;;5094781;28;20074;-68
2023/10/07 03:56:38;;;;;;;11.02;4.88;;;16.40;84.60;;;;;;5093791;28;20028;-69
2023/10/07 03:59:05;;;;;;;12.70;5.45;;;16.40;84.40;;;;;;5093975;28;20055;-69
2023/10/07 04:01:35;;;;;;;9.77;4.32;;;16.50;84.30;;;;;;5093509;28;20036;-68
2023/10/07 04:04:01;;;;;;;13.25;5.38;;;16.50;84.00;;;;;;5093894;28;20028;-69
2023/10/07 04:06:30;;;;;;;11.95;5.82;;;16.40;84.40;;;;;;5093328;28;20032;-69
2023/10/07 04:09:06;;;;;;;9.75;4.30;;;16.40;83.70;;;;;;5093565;28;20169;-69
2023/10/07 04:11:37;;;;;;;10.27;4.47;;;16.50;83.60;;;;;;5092053;28;20032;-68
2023/10/07 04:14:08;;;;;;;10.48;4.25;;;16.50;83.60;;;;;;5093662;28;20111;-69
2023/10/07 04:16:34;;;;;;;7.22;3.65;;;16.50;84.10;;;;;;5092859;28;20361;-68
2023/10/07 04:20:14;;;;;;;9.32;4.75;;;16.50;83.30;;;;;;5092945;28;20485;-69
2023/10/07 04:21:55;;;;;;;7.97;4.20;;;16.40;83.10;;;;;;5088301;28;20036;-69
2023/10/07 04:24:28;;;;;;;9.18;4.03;;;16.40;82.90;;;;;;5092875;28;20383;-69
2023/10/07 04:26:55;;;;;;;8.88;4.20;;;16.40;82.60;;;;;;5092258;28;20095;-69
2023/10/07 04:29:24;;;;;;;8.13;4.10;;;16.50;82.40;;;;;;5093043;28;20039;-70
2023/10/07 04:31:51;;;;;;;9.70;3.83;;;16.50;82.20;;;;;;5093397;28;20082;-69
2023/10/07 04:34:18;;;;;;;6.07;3.60;;;16.50;81.80;;;;;;5093229;28;20039;-68
2023/10/07 04:39:31;;;;;;;9.00;3.92;;;16.60;81.00;;;;;;5092806;28;20032;-68
2023/10/07 04:42:03;;;;;;;8.90;3.47;;;16.60;80.50;;;;;;5091275;28;20062;-69
2023/10/07 04:50:07;;;;;;;7.75;3.85;;;16.70;79.40;;;;;;5093001;28;20036;-68
2023/10/07 04:52:34;;;;;;;5.53;3.30;;;16.70;79.00;;;;;;5092681;28;20415;-68
2023/10/07 04:55:01;;;;;;;7.40;3.55;;;16.70;78.80;;;;;;5093026;28;20043;-68
2023/10/07 05:00:17;;;;;;;5.60;3.50;;;16.70;78.10;;;;;;5089464;28;20032;-68
2023/10/07 05:02:43;;;;;;;6.60;4.00;;;16.70;77.80;;;;;;5092398;28;20391;-69
2023/10/07 05:05:13;;;;;;;10.60;3.97;;;16.70;77.50;;;;;;5093013;28;20060;-69
2023/10/07 05:07:43;;;;;;;6.68;3.55;;;16.70;77.20;;;;;;5092331;28;20020;-70
2023/10/07 05:10:09;;;;;;;5.40;3.13;;;16.70;76.80;;;;;;5092665;28;20044;-68
2023/10/07 05:12:35;;;;;;;6.25;3.17;;;16.80;76.60;;;;;;5092115;28;20031;-68
2023/10/07 05:15:03;;;;;;;11.07;3.22;;;16.80;76.10;;;;;;5091340;28;20024;-68
2023/10/07 05:17:36;;;;;;;8.38;3.53;;;16.90;75.40;;;;;;5092427;28;20388;-69
2023/10/07 05:20:05;;;;;;;7.47;3.30;;;16.90;74.80;;;;;;5092492;28;20398;-69
2023/10/07 05:22:31;;;;;;;8.43;2.70;;;17.00;74.70;;;;;;5092084;28;20039;-69
2023/10/07 05:24:59;;;;;;;8.23;2.95;;;17.00;74.20;;;;;;5092635;28;20119;-69
2023/10/07 05:27:25;;;;;;;5.65;2.95;;;17.00;74.10;;;;;;5092202;28;20028;-70
2023/10/07 05:29:50;;;;;;;5.72;2.65;;;17.00;73.90;;;;;;5095139;28;20101;-69
2023/10/07 05:32:17;;;;;;;6.32;3.13;;;17.00;73.80;;;;;;5096839;28;20060;-69
2023/10/07 05:34:45;;;;;;;6.05;2.90;;;17.10;73.50;;;;;;5096333;28;20059;-69
2023/10/07 05:37:12;;;;;;;6.93;3.58;;;17.10;73.40;;;;;;5096815;28;20034;-68
2023/10/07 05:39:44;;;;;;;7.18;3.30;;;17.10;73.30;;;;;;5096219;28;20161;-69
2023/10/07 05:42:11;;;;;;;8.35;3.40;;;17.10;73.20;;;;;;5096810;28;20093;-69
2023/10/07 05:44:39;;;;;;;6.57;3.45;;;17.10;73.30;;;;;;5096179;28;20031;-70
2023/10/07 05:47:05;;;;;;;6.78;3.47;;;17.10;73.30;;;;;;5096413;28;20476;-69
2023/10/07 05:49:31;;;;;;;7.00;3.45;;;17.10;73.40;;;;;;5095927;28;20036;-70
2023/10/07 05:51:58;;;;;;;11.30;3.53;;;17.10;73.50;;;;;;5096490;28;20434;-69
2023/10/07 05:54:28;;;;;;;9.43;2.97;;;17.10;73.60;;;;;;5096492;28;20039;-69
2023/10/07 05:56:58;;;;;;;6.57;3.42;;;17.10;73.70;;;;;;5096422;28;20035;-69
2023/10/07 05:59:24;;;;;;;8.32;3.65;;;17.10;73.60;;;;;;5096413;28;20036;-69
2023/10/07 06:01:49;;;;;;;6.03;3.58;;;17.10;73.90;;;;;;5095928;28;20525;-69
2023/10/07 06:04:15;;;;;;;11.65;3.40;;;17.20;73.70;;;;;;5096241;28;20485;-69
2023/10/07 06:06:44;;;;;;;6.88;3.28;;;17.20;73.50;;;;;;5095608;28;20024;-69
2023/10/07 06:09:14;;;;;;;7.30;2.85;;;17.20;73.40;;;;;;5094929;28;20039;-69
2023/10/07 06:11:42;;;;;;;5.47;3.13;;;17.20;73.20;;;;;;5095762;28;20392;-69
2023/10/07 06:14:08;;;;;;;7.50;3.10;;;17.30;73.80;;;;;;5096036;28;20028;-69
2023/10/07 06:16:33;;;;;;;10.32;3.63;;;17.30;73.20;;;;;;5095578;28;20062;-69
2023/10/07 06:18:59;;;;;;;7.00;3.53;;;17.40;73.20;;;;;;5095831;28;20028;-70
2023/10/07 06:21:27;;;;;;;5.20;2.92;;;17.40;73.20;;;;;;5096001;28;20035;-69
2023/10/07 06:24:00;;;;;;;9.45;3.15;;;17.50;72.90;;;;;;5095729;28;20067;-68
2023/10/07 06:26:25;;;;;;;7.10;3.35;;;17.50;72.90;;;;;;5095983;28;20039;-68
2023/10/07 06:28:51;;;;;;;10.13;3.30;;;17.60;72.90;;;;;;5095300;28;20403;-69
2023/10/07 06:31:28;;;;;;;6.20;3.17;;;17.60;72.90;;;;;;5095595;28;20111;-69
2023/10/07 06:34:00;;;;;;;7.18;2.95;;;17.60;72.80;;;;;;5094515;28;20089;-69
2023/10/07 06:36:27;;;;;;;6.63;3.70;;;17.60;73.00;;;;;;5095718;28;20020;-69
2023/10/07 06:38:54;;;;;;;6.60;3.42;;;17.60;73.20;;;;;;5095115;28;20483;-69
2023/10/07 06:41:20;;;;;;;5.57;3.38;;;17.60;73.20;;;;;;5094685;28;20383;-69
2023/10/07 06:43:53;;;;;;;5.78;3.53;;;17.70;73.50;;;;;;5095091;28;20035;-69
2023/10/07 06:46:22;;;;;;;11.93;4.03;;;17.70;73.50;;;;;;5092911;28;20115;-69
2023/10/07 06:48:49;;;;;;;9.27;3.60;;;17.70;73.40;;;;;;5090925;28;20122;-68
2023/10/07 06:51:15;;;;;;;8.48;3.30;;;17.80;73.30;;;;;;5095129;28;20024;-69
2023/10/07 06:53:44;;;;;;;9.73;3.70;;;17.80;73.30;;;;;;5094566;28;20419;-69
2023/10/07 06:56:20;;;;;;;16.50;3.50;;;17.90;73.20;;;;;;5095061;28;20102;-69
2023/10/07 06:58:53;;;;;;;7.45;3.80;;;18.00;73.30;;;;;;5085982;28;20064;-68
2023/10/07 07:04:10;;;;;;;8.25;3.60;;;18.10;72.80;;;;;;5074943;28;20365;-70
2023/10/07 07:06:43;;;;;;;9.07;3.60;;;18.10;72.80;;;;;;5074534;28;20020;-70
2023/10/07 07:11:59;;;;;;;8.80;3.97;;;18.30;72.60;;;;;;5074849;28;20035;-69
2023/10/07 07:14:31;;;;;;;8.65;4.13;;;18.30;72.60;;;;;;5074388;28;20427;-69
2023/10/07 07:16:57;;;;;;;7.78;3.97;;;18.40;72.50;;;;;;5074684;28;20099;-70
2023/10/07 07:19:23;;;;;;;7.13;3.60;;;18.60;72.50;;;;;;5074699;28;20461;-69
2023/10/07 07:21:50;;;;;;;7.95;4.05;;;18.80;71.70;;;;;;5074312;28;20428;-69
2023/10/07 07:24:23;;;;;;;6.78;3.97;;;19.00;70.70;;;;;;5074635;28;20354;-69
2023/10/07 07:26:52;;;;;;;6.68;4.07;;;19.20;69.90;;;;;;5074201;28;20021;-69
2023/10/07 07:29:25;;;;;;;10.27;4.32;;;19.40;69.70;;;;;;5073450;28;20028;-69
2023/10/07 07:31:50;;;;;;;8.35;4.38;;;19.60;69.00;;;;;;5080837;28;20116;-70
2023/10/07 07:34:26;;;;;;;12.43;4.45;;;19.90;67.90;;;;;;5088761;28;20107;-69
2023/10/07 07:37:05;;;;;;;7.65;3.97;;;20.10;67.30;;;;;;5081531;28;20028;-68
2023/10/07 07:39:31;;;;;;;8.93;4.03;;;20.40;66.10;;;;;;5073129;28;20033;-70
2023/10/07 07:42:22;;;;;;;9.65;3.67;;;20.60;65.30;;;;;;5076944;28;20039;-69
2023/10/07 07:44:57;;;;;;;7.90;4.20;;;20.80;64.50;;;;;;5093827;28;20027;-69
2023/10/07 07:47:23;;;;;;;8.32;3.60;;;21.00;63.80;;;;;;5094424;28;20024;-70
2023/10/07 07:49:51;;;;;;;9.45;4.50;;;21.20;62.70;;;;;;5093341;28;20484;-69
2023/10/07 07:52:17;;;;;;;11.75;4.55;;;21.40;62.30;;;;;;5079014;28;20415;-69
2023/10/07 07:54:42;;;;;;;7.35;3.85;;;21.70;61.50;;;;;;5090985;28;20024;-69
2023/10/07 07:57:08;;;;;;;9.07;4.10;;;21.90;61.30;;;;;;5081254;28;20029;-70
2023/10/07 07:59:34;;;;;;;10.57;4.55;;;22.20;60.50;;;;;;5075315;28;20052;-69
2023/10/07 08:02:12;;;;;;;9.27;3.85;;;22.50;59.30;;;;;;5082840;28;20391;-71
2023/10/07 08:04:42;;;;;;;7.88;4.03;;;22.70;58.30;;;;;;5075726;28;20029;-70
2023/10/07 08:09:44;;;;;;;7.60;4.18;;;22.80;57.20;;;;;;5078908;28;20043;-70
2023/10/07 08:12:10;;;;;;;12.60;3.75;;;22.80;56.90;;;;;;5083131;28;20037;-69
2023/10/07 08:14:37;;;;;;;10.05;3.97;;;22.80;56.80;;;;;;5073337;28;20032;-69
2023/10/07 08:17:08;;;;;;;10.30;4.60;;;22.90;56.10;;;;;;5073162;28;20096;-70
2023/10/07 08:19:35;;;;;;;6.95;3.88;;;22.90;55.70;;;;;;5075776;28;20028;-69
2023/10/07 08:22:03;;;;;;;11.85;4.07;;;22.90;55.00;;;;;;5070274;28;20024;-70
2023/10/07 08:24:31;;;;;;;6.72;3.60;;;22.90;55.40;;;;;;5073132;28;20344;-70
2023/10/07 08:27:03;;;;;;;10.25;4.18;;;22.90;54.90;;;;;;5071565;28;20484;-69
2023/10/07 08:29:32;;;;;;;20.23;5.00;;;22.90;54.50;;;;;;5076329;28;20032;-71
2023/10/07 08:32:16;;;;;;;11.85;3.92;;;22.90;53.90;;;;;;5072876;28;20378;-72
2023/10/07 08:34:47;;;;;;;9.65;3.63;;;22.80;53.70;;;;;;5076322;28;20080;-70
2023/10/07 08:37:16;;;;;;;8.63;3.85;;;22.80;53.50;;;;;;5071457;28;20028;-70
2023/10/07 08:39:44;;;;;;;11.48;3.60;;;22.80;52.20;;;;;;5075257;28;20035;-70
2023/10/07 08:42:18;;;;;;;10.73;3.90;;;22.70;52.00;;;;;;5071941;28;20021;-69
2023/10/07 08:44:53;;;;;;;7.15;3.40;;;22.70;52.00;;;;;;5072521;28;20428;-70
2023/10/07 08:47:21;;;;;;;11.23;4.15;;;22.70;50.90;;;;;;5073269;28;20020;-71
2023/10/07 08:49:48;;;;;;;10.68;3.55;;;22.70;50.70;;;;;;5077307;28;20056;-69
2023/10/07 08:52:16;;;;;;;15.00;3.58;;;22.70;50.50;;;;;;5088416;28;20035;-69
2023/10/07 08:54:44;;;;;;;7.68;3.08;;;22.60;49.90;;;;;;5092823;28;20031;-70
2023/10/07 08:57:22;;;;;;;12.80;3.70;;;22.60;49.90;;;;;;5088885;28;20071;-70
2023/10/07 08:59:52;;;;;;;9.30;3.25;;;22.60;49.50;;;;;;5084029;28;20423;-71
2023/10/07 09:02:30;;;;;;;7.70;3.47;;;22.50;49.00;;;;;;5091633;28;20020;-78
2023/10/07 09:04:59;;;;;;;11.23;3.78;;;22.40;48.80;;;;;;5091801;28;20046;-77
2023/10/07 09:07:31;;;;;;;12.68;3.75;;;22.40;48.90;;;;;;5092876;28;20028;-78
2023/10/07 09:10:06;;;;;;;7.28;3.67;;;22.40;49.10;;;;;;5090078;28;20036;-78
2023/10/07 09:12:39;;;;;;;11.82;3.38;;;22.50;47.90;;;;;;5075084;28;20103;-71
2023/10/07 09:15:12;;;;;;;15.93;3.83;;;22.50;46.40;;;;;;5083914;28;20031;-71
2023/10/07 09:17:41;;;;;;;8.85;3.22;;;22.60;46.60;;;;;;5072652;28;20033;-71
2023/10/07 09:20:13;;;;;;;8.07;3.55;;;22.60;46.80;;;;;;5071494;28;20119;-71
2023/10/07 09:22:45;;;;;;;9.63;3.53;;;22.60;46.60;;;;;;5072351;28;20024;-72
2023/10/07 09:25:17;;;;;;;7.15;3.70;;;22.60;46.40;;;;;;5084142;28;20027;-71
2023/10/07 09:27:54;;;;;;;7.20;3.15;;;22.60;47.00;;;;;;5073509;28;20032;-78
2023/10/07 09:33:13;;;;;;;7.85;3.47;;;22.60;47.10;;;;;;5071936;28;20397;-71
2023/10/07 09:35:47;;;;;;;7.97;3.70;;;22.70;47.10;;;;;;5078323;28;20024;-72
2023/10/07 09:38:27;;;;;;;7.82;3.67;;;22.70;46.70;;;;;;5092789;28;20066;-72
2023/10/07 09:43:26;;;;;;;7.97;3.70;;;22.70;46.20;;;;;;5092377;28;20429;-69
2023/10/07 09:45:52;;;;;;;;;;;22.60;46.00;;;;;;5086890;28;20031;-69
2023/10/07 09:48:23;;;;;;;7.55;3.60;;;22.50;45.90;;;;;;5092459;28;19912;-69
2023/10/07 09:50:55;;;;;;;9.90;3.38;;;22.40;45.50;;;;;;5075615;28;20039;-69
2023/10/07 09:53:30;;;;;;;9.60;3.65;;;22.20;45.70;;;;;;5071971;28;20033;-69
2023/10/07 09:56:23;;;;;;;10.70;3.95;;;22.10;46.70;;;;;;5071824;28;20017;-69
2023/10/07 09:59:26;;;;;;;6.07;3.28;;;22.10;46.30;;;;;;5072118;28;20128;-69
2023/10/07 10:02:42;;;;;;;7.63;3.30;;;22.10;46.20;;;;;;5058162;28;20503;-68
2023/10/07 10:05:35;;;;;;;10.35;3.50;;;22.20;45.10;;;;;;5040796;28;20032;-70
2023/10/07 10:08:43;;;;;;;14.57;4.30;;;22.30;43.60;;;;;;5071836;28;20024;-69
2023/10/07 10:11:31;;;;;;;9.40;3.70;;;22.40;41.40;;;;;;5071654;28;20025;-69
2023/10/07 10:16:45;;;;;;;9.07;3.35;;;22.30;42.70;;;;;;5075818;28;20493;-69
2023/10/07 10:19:44;;;;;;;8.70;3.97;;;22.40;43.10;;;;;;5075770;28;20032;-69
2023/10/07 10:22:11;;;;;;;8.90;3.10;;;22.50;42.20;;;;;;5075305;28;20072;-69
2023/10/07 10:24:43;;;;;;;6.72;3.65;;;22.60;41.80;;;;;;5075684;28;20373;-69
2023/10/07 10:27:13;;;;;;;8.20;3.42;;;22.70;41.40;;;;;;5075405;28;20095;-69
2023/10/07 10:30:04;;;;;;;7.97;3.90;;;22.80;40.90;;;;;;5075455;28;20040;-69
2023/10/07 10:32:36;;;;;;;7.93;3.58;;;22.90;40.30;;;;;;5075370;28;20032;-69
2023/10/07 10:35:11;;;;;;;11.57;4.28;;;22.90;40.30;;;;;;5075161;28;20024;-68
2023/10/07 10:37:37;;;;;;;8.73;4.20;;;23.00;39.50;;;;;;5075556;28;20051;-68
2023/10/07 10:40:15;;;;;;;8.00;3.45;;;23.00;40.00;;;;;;5074795;28;20127;-69
2023/10/07 10:42:48;;;;;;;8.23;3.95;;;23.00;39.30;;;;;;5095615;28;20031;-69
2023/10/07 10:45:26;;;;;;;11.00;4.28;;;23.00;39.70;;;;;;5095520;28;20028;-69
2023/10/07 10:47:53;;;;;;;10.52;3.65;;;22.90;37.80;;;;;;5094968;28;20376;-69
2023/10/07 10:50:22;;;;;;;8.95;3.75;;;22.90;37.00;;;;;;5092001;28;20040;-70
2023/10/07 10:52:48;;;;;;;7.93;3.35;;;22.70;37.00;;;;;;5095369;28;20081;-68
2023/10/07 10:55:18;;;;;;;11.60;3.90;;;22.60;37.50;;;;;;5091415;28;20066;-70
2023/10/07 10:57:44;;;;;;;12.23;3.85;;;22.50;37.20;;;;;;5095127;28;20083;-69
2023/10/07 11:00:19;;;;;;;9.70;3.55;;;22.60;37.70;;;;;;5093504;28;20032;-69
2023/10/07 11:02:46;;;;;;;9.35;4.15;;;22.60;37.30;;;;;;5094834;28;20044;-69
2023/10/07 11:05:13;;;;;;;11.45;3.38;;;22.70;37.90;;;;;;5095017;28;20028;-70
2023/10/07 11:07:39;;;;;;;8.13;4.15;;;22.70;37.90;;;;;;5094675;28;20424;-70
2023/10/07 11:10:10;;;;;;;8.90;4.15;;;22.80;38.30;;;;;;5094567;28;20032;-70
2023/10/07 11:12:36;;;;;;;7.50;3.25;;;22.90;38.50;;;;;;5094804;28;20465;-70
2023/10/07 11:15:13;;;;;;;5.63;3.47;;;23.00;38.10;;;;;;5094415;28;20035;-68
2023/10/07 11:17:41;;;;;;;10.52;3.47;;;23.00;37.20;;;;;;5095127;28;20130;-68
2023/10/07 11:20:09;;;;;;;8.70;3.67;;;23.00;36.40;;;;;;5094406;28;20031;-69
2023/10/07 11:22:38;;;;;;;9.48;3.63;;;23.00;36.80;;;;;;5094807;28;20020;-69
2023/10/07 11:25:06;;;;;;;9.77;3.38;;;22.90;37.20;;;;;;5093093;28;20415;-70
2023/10/07 11:27:32;;;;;;;10.07;3.60;;;22.90;37.20;;;;;;5094168;28;20123;-68
2023/10/07 11:30:03;;;;;;;9.23;4.07;;;22.90;37.70;;;;;;5094113;28;20112;-70
2023/10/07 11:32:29;;;;;;;6.10;3.55;;;22.90;37.60;;;;;;5094706;28;20028;-69
2023/10/07 11:34:57;;;;;;;9.75;3.40;;;22.90;37.80;;;;;;5093187;28;20028;-69
2023/10/07 11:37:23;;;;;;;8.70;3.40;;;23.00;37.80;;;;;;5094619;28;20028;-68
2023/10/07 11:39:49;;;;;;;10.32;3.85;;;23.00;37.90;;;;;;5094537;28;20081;-70
2023/10/07 11:42:16;;;;;;;9.32;3.45;;;23.10;37.70;;;;;;5094520;28;20024;-68
2023/10/07 11:44:46;;;;;;;8.63;3.45;;;23.10;37.60;;;;;;5095194;28;20081;-69
2023/10/07 11:47:15;;;;;;;9.43;2.83;;;23.20;37.40;;;;;;5094485;28;20031;-68
2023/10/07 11:49:41;;;;;;;6.22;3.03;;;23.30;36.20;;;;;;5094448;28;20028;-69
2023/10/07 11:52:07;;;;;;;8.40;3.58;;;23.40;36.10;;;;;;5094132;28;20035;-70
2023/10/07 11:54:34;;;;;;;10.00;2.78;;;23.40;35.20;;;;;;5094266;28;20031;-70
2023/10/07 11:57:02;;;;;;;6.90;3.40;;;23.50;34.30;;;;;;5093824;28;20031;-68
2023/10/07 11:59:28;;;;;;;5.72;2.83;;;23.60;31.40;;;;;;5094655;28;20491;-69
2023/10/07 12:01:54;;;;;;;9.98;3.50;;;23.50;31.80;;;;;;5094076;28;20040;-74
2023/10/07 12:04:21;;;;;;;11.43;3.88;;;23.60;32.60;;;;;;5094034;28;20085;-68
2023/10/07 12:06:49;;;;;;;8.00;3.45;;;23.70;32.20;;;;;;5093835;28;20039;-69
2023/10/07 12:09:20;;;;;;;5.70;2.92;;;23.70;30.50;;;;;;5093376;28;20119;-70
2023/10/07 12:11:45;;;;;;;8.55;2.88;;;23.70;28.70;;;;;;5093840;28;20388;-69
2023/10/07 12:14:13;;;;;;;11.77;3.13;;;23.70;27.80;;;;;;5093296;28;20053;-69
2023/10/07 12:16:38;;;;;;;8.00;2.85;;;23.60;27.90;;;;;;5093935;28;20024;-69
2023/10/07 12:19:04;;;;;;;9.00;3.00;;;23.60;27.40;;;;;;5092988;28;20181;-69
2023/10/07 12:21:30;;;;;;;4.05;2.55;;;23.60;27.90;;;;;;5093759;28;20093;-68
2023/10/07 12:23:56;;;;;;;9.55;3.10;;;23.60;27.40;;;;;;5092800;28;20461;-72
2023/10/07 12:26:22;;;;;;;11.00;3.03;;;23.60;27.40;;;;;;5092172;28;20032;-70
2023/10/07 12:28:52;;;;;;;4.88;2.78;;;23.60;27.50;;;;;;5093586;28;20066;-68
2023/10/07 12:31:20;;;;;;;5.85;2.92;;;23.50;27.50;;;;;;5093135;28;20140;-69
2023/10/07 12:33:45;;;;;;;5.57;2.88;;;23.50;27.70;;;;;;5093331;28;20032;-70
2023/10/07 12:36:15;;;;;;;6.10;3.22;;;23.40;27.40;;;;;;5093000;28;20081;-69
2023/10/07 12:38:41;;;;;;;7.18;2.95;;;23.40;28.10;;;;;;5092440;28;20532;-68
2023/10/07 12:41:08;;;;;;;12.48;3.50;;;23.40;27.60;;;;;;5092767;28;20024;-68
2023/10/07 12:43:37;;;;;;;5.80;2.78;;;23.40;27.30;;;;;;5092435;28;20039;-70
2023/10/07 12:46:09;;;;;;;7.53;2.88;;;23.40;27.60;;;;;;5072309;28;20496;-69
2023/10/07 12:48:40;;;;;;;7.70;2.70;;;23.40;27.80;;;;;;5083936;28;20028;-69
2023/10/07 12:51:06;;;;;;;6.47;2.85;;;23.40;28.10;;;;;;5089225;28;20028;-69
2023/10/07 12:53:35;;;;;;;9.27;3.05;;;23.40;28.40;;;;;;5093208;28;20032;-69
2023/10/07 12:56:12;;;;;;;6.93;2.60;;;23.40;28.40;;;;;;5092735;28;20392;-69
2023/10/07 12:58:39;;;;;;;6.40;2.90;;;23.50;29.20;;;;;;5093019;28;20048;-69
2023/10/07 13:01:11;;;;;;;7.70;2.97;;;23.60;28.70;;;;;;5092855;28;20019;-69
2023/10/07 13:03:39;;;;;;;7.57;3.40;;;23.60;29.20;;;;;;5092788;28;20024;-69
2023/10/07 13:06:08;;;;;;;5.03;2.97;;;23.70;29.10;;;;;;5092563;28;20024;-69
2023/10/07 13:08:33;;;;;;;7.32;2.67;;;23.70;29.30;;;;;;5092861;28;20032;-69
2023/10/07 13:11:00;;;;;;;7.50;2.40;;;23.80;29.30;;;;;;5092154;28;20074;-72
2023/10/07 13:13:29;;;;;;;7.53;2.53;;;23.70;29.50;;;;;;5092854;28;20101;-68
2023/10/07 13:15:56;;;;;;;7.18;3.25;;;23.70;29.80;;;;;;5093503;28;20089;-68
2023/10/07 13:18:24;;;;;;;7.45;2.85;;;23.70;30.10;;;;;;5094025;28;20024;-68
2023/10/07 13:20:49;;;;;;;9.82;3.10;;;23.80;30.00;;;;;;5093153;28;20070;-68
2023/10/07 13:23:15;;;;;;;5.45;3.03;;;23.80;30.00;;;;;;5092873;28;20507;-69
2023/10/07 13:25:45;;;;;;;7.35;2.85;;;23.80;30.00;;;;;;5091658;28;20055;-68
2023/10/07 13:28:11;;;;;;;7.03;3.13;;;23.70;30.00;;;;;;5092703;28;20024;-68
2023/10/07 13:30:39;;;;;;;11.45;3.85;;;23.60;30.30;;;;;;5093644;28;20032;-68
2023/10/07 13:33:07;;;;;;;6.78;2.85;;;23.60;30.60;;;;;;5092607;28;20111;-68
2023/10/07 13:35:33;;;;;;;7.85;3.30;;;23.50;30.90;;;;;;5093038;28;20372;-68
2023/10/07 13:37:58;;;;;;;10.10;3.08;;;23.50;31.20;;;;;;5093635;28;20025;-69
2023/10/07 13:40:24;;;;;;;8.68;3.40;;;23.40;31.80;;;;;;5094275;28;20028;-68
2023/10/07 13:42:52;;;;;;;9.75;3.45;;;23.30;31.90;;;;;;5091781;28;20028;-68
2023/10/07 13:45:17;;;;;;;8.88;3.00;;;23.30;32.20;;;;;;5092420;28;20032;-69
2023/10/07 13:47:44;;;;;;;7.75;2.90;;;23.20;32.60;;;;;;5092652;28;20028;-68
2023/10/07 13:50:13;;;;;;;8.35;3.58;;;23.20;33.10;;;;;;5093776;28;20035;-69